Terminal Aerodrome Forecast
Issued by NWS Wilmington, OH

Current Version | Previous Version | Text Only | Print | Product List | Glossary Off
Versions: 1 2 3 4 5 6 7 8 9 10 11 12 13 14 15 16 17 18

069
FTUS41 KILN 030823 AAA
TAFDAY
TAF AMD
KDAY 030823Z 0308/0406 17016G26KT P6SM OVC050
      TEMPO 0308/0312 24014G23KT 5SM -SHRA BR OVC018
     FM031200 22012G22KT P6SM BKN018
     FM031500 24018G30KT P6SM BKN035=

USA.gov is the U.S. government's official web portal to all federal, state and local government web resources and services.